Time;durP1;ratioP1;P1;durP2;ratioP2;P2;SDS_P1;SDS_P2;PMS_P1;PMS_P2;Temp;Humidity;BMP_temperature;BMP_pressure;BME280_temperature;BME280_humidity;BME280_pressure;Samples;Min_cycle;Max_cycle;Signal;HPM_P1;HPM_P2
2021/03/19 00:02:08;;;;;;;14.90;9.77;;;5.30;94.60;;;;;;5076184;28;20477;-85
2021/03/19 00:04:33;;;;;;;13.90;10.23;;;5.20;94.60;;;;;;5075102;28;20048;-86
2021/03/19 00:06:59;;;;;;;16.63;10.40;;;5.20;94.30;;;;;;5057692;28;20051;-86
2021/03/19 00:09:25;;;;;;;16.17;10.60;;;5.10;94.60;;;;;;5056549;28;20477;-85
2021/03/19 00:11:51;;;;;;;17.93;11.10;;;5.10;94.70;;;;;;5074713;28;20389;-86
2021/03/19 00:14:16;;;;;;;19.50;11.83;;;5.20;94.60;;;;;;5075915;28;20436;-86
2021/03/19 00:16:42;;;;;;;15.80;11.33;;;5.20;94.70;;;;;;5077538;28;20070;-86
2021/03/19 00:19:09;;;;;;;15.40;10.60;;;5.20;94.60;;;;;;5079025;28;20036;-86
2021/03/19 00:21:36;;;;;;;18.53;11.93;;;5.20;94.50;;;;;;5062008;28;20047;-86
2021/03/19 00:24:03;;;;;;;16.87;11.07;;;5.20;94.50;;;;;;5062378;28;20028;-86
2021/03/19 00:26:28;;;;;;;18.20;12.13;;;5.20;94.40;;;;;;5079610;28;20020;-86
2021/03/19 00:28:54;;;;;;;17.10;11.40;;;5.20;94.40;;;;;;5061640;28;20477;-86
2021/03/19 00:31:20;;;;;;;21.57;12.43;;;5.10;94.30;;;;;;5061426;28;20024;-86
2021/03/19 00:33:46;;;;;;;20.67;12.17;;;5.10;94.30;;;;;;5080150;28;20031;-85
2021/03/19 00:36:12;;;;;;;18.80;11.37;;;5.10;94.30;;;;;;5061924;28;20489;-86
2021/03/19 00:38:37;;;;;;;18.63;11.87;;;5.10;94.30;;;;;;5080403;28;20025;-86
2021/03/19 00:41:04;;;;;;;17.57;11.53;;;5.00;94.30;;;;;;5079446;28;20028;-86
2021/03/19 00:43:30;;;;;;;18.50;11.93;;;5.00;93.80;;;;;;5080677;28;20062;-86
2021/03/19 00:45:55;;;;;;;15.57;11.17;;;4.90;94.00;;;;;;5062419;28;20028;-85
2021/03/19 00:48:21;;;;;;;19.17;11.93;;;4.90;94.20;;;;;;5062108;28;20036;-86
2021/03/19 00:50:47;;;;;;;17.93;11.70;;;4.90;93.90;;;;;;5061002;28;20504;-86
2021/03/19 00:53:12;;;;;;;15.63;10.73;;;5.00;94.00;;;;;;5061347;28;20044;-86
2021/03/19 00:55:38;;;;;;;19.00;11.07;;;4.90;93.70;;;;;;5061665;28;20032;-86
2021/03/19 00:58:04;;;;;;;17.33;10.47;;;4.90;93.60;;;;;;5061467;28;20027;-85
2021/03/19 01:00:33;;;;;;;19.43;10.60;;;4.90;93.50;;;;;;5079411;28;20071;-86
2021/03/19 01:02:59;;;;;;;15.00;10.60;;;5.00;93.70;;;;;;5080158;28;20389;-86
2021/03/19 01:05:29;;;;;;;15.60;10.40;;;5.00;93.80;;;;;;5061823;28;20024;-86
2021/03/19 01:07:55;;;;;;;16.80;10.60;;;5.00;93.50;;;;;;5079862;28;20066;-86
2021/03/19 01:10:26;;;;;;;16.00;10.50;;;4.90;93.50;;;;;;5080329;28;20485;-86
2021/03/19 01:12:51;;;;;;;16.97;10.83;;;5.00;93.60;;;;;;5079992;28;20062;-86
2021/03/19 01:15:17;;;;;;;16.47;10.60;;;5.00;93.80;;;;;;5079610;28;20024;-86
2021/03/19 01:17:43;;;;;;;17.33;10.27;;;4.90;93.60;;;;;;5082185;23;20526;-85
2021/03/19 01:20:14;;;;;;;16.37;11.00;;;4.90;93.50;;;;;;5075843;28;20064;-85
2021/03/19 01:22:40;;;;;;;19.60;11.27;;;4.90;93.60;;;;;;5076300;28;20028;-85
2021/03/19 01:25:18;;;;;;;18.53;10.23;;;4.80;93.80;;;;;;5057010;28;20056;-83
2021/03/19 01:27:44;;;;;;;16.57;10.60;;;4.90;93.90;;;;;;5080347;28;20411;-85
2021/03/19 01:30:13;;;;;;;15.00;10.87;;;4.80;93.90;;;;;;5077388;28;20024;-85
2021/03/19 01:32:39;;;;;;;13.70;10.18;;;4.80;93.90;;;;;;5081230;28;20020;-82
2021/03/19 01:35:06;;;;;;;17.63;10.23;;;4.80;93.70;;;;;;5081430;28;20024;-82
2021/03/19 01:37:31;;;;;;;16.10;10.40;;;4.80;93.80;;;;;;5078809;28;20023;-85
2021/03/19 01:39:57;;;;;;;17.33;10.83;;;4.80;93.70;;;;;;5080886;28;20028;-83
2021/03/19 01:42:23;;;;;;;16.03;10.43;;;4.90;93.50;;;;;;5100363;28;20057;-83
2021/03/19 01:45:06;;;;;;;16.23;10.07;;;4.90;93.60;;;;;;5097632;28;20024;-83
2021/03/19 01:48:09;;;;;;;15.70;10.67;;;4.90;93.30;;;;;;5094663;28;20039;-83
2021/03/19 01:51:13;;;;;;;17.07;10.87;;;4.90;93.50;;;;;;5075933;28;20071;-83
2021/03/19 01:54:16;;;;;;;18.17;11.23;;;4.90;93.50;;;;;;5095253;28;20081;-85
2021/03/19 01:57:19;;;;;;;17.33;10.97;;;4.80;93.40;;;;;;5077652;28;20063;-85
2021/03/19 02:00:22;;;;;;;16.40;11.00;;;4.90;93.70;;;;;;5076334;28;20024;-83
2021/03/19 02:03:26;;;;;;;15.27;10.77;;;4.90;93.50;;;;;;5076395;28;20070;-82
2021/03/19 02:06:29;;;;;;;20.10;10.90;;;4.80;93.80;;;;;;5098575;28;20043;-83
2021/03/19 02:09:32;;;;;;;16.63;10.83;;;4.80;93.70;;;;;;5080023;28;20035;-84
2021/03/19 02:12:35;;;;;;;15.77;10.37;;;4.70;93.90;;;;;;5100210;28;20047;-82
2021/03/19 02:15:38;;;;;;;17.23;10.30;;;4.70;94.00;;;;;;5082386;28;20020;-83
2021/03/19 02:18:42;;;;;;;19.03;11.07;;;4.70;94.20;;;;;;5077294;28;20038;-83
2021/03/19 02:21:45;;;;;;;17.80;10.60;;;4.70;93.60;;;;;;5080912;28;20533;-84
2021/03/19 02:24:48;;;;;;;16.57;10.40;;;4.70;94.00;;;;;;5100495;28;20051;-82
2021/03/19 02:27:51;;;;;;;16.33;10.57;;;4.70;94.00;;;;;;5081413;28;20028;-83
2021/03/19 02:30:54;;;;;;;20.03;10.50;;;4.60;93.50;;;;;;5080039;28;20083;-82
2021/03/19 02:33:20;;;;;;;15.37;10.23;;;4.60;93.10;;;;;;5079973;28;20151;-82
2021/03/19 02:35:56;;;;;;;16.87;10.27;;;4.70;93.10;;;;;;5080137;28;20528;-83
2021/03/19 02:38:24;;;;;;;17.93;10.33;;;4.50;93.30;;;;;;5098483;28;20135;-83
2021/03/19 02:40:50;;;;;;;13.90;9.23;;;4.50;93.00;;;;;;5097860;28;20055;-83
2021/03/19 02:43:17;;;;;;;14.73;8.97;;;4.60;92.90;;;;;;5078260;28;20031;-82
2021/03/19 02:45:44;;;;;;;13.17;8.90;;;4.60;93.00;;;;;;5079001;28;20024;-83
2021/03/19 02:48:11;;;;;;;16.13;9.30;;;4.60;92.90;;;;;;5078235;28;20089;-82
2021/03/19 02:50:37;;;;;;;13.63;8.73;;;4.60;93.10;;;;;;5078548;28;20035;-82
2021/03/19 02:53:03;;;;;;;12.93;8.70;;;4.60;93.20;;;;;;5078908;28;20020;-83
2021/03/19 02:55:28;;;;;;;11.17;7.87;;;4.50;93.50;;;;;;5076036;28;20032;-83
2021/03/19 02:57:54;;;;;;;13.20;8.03;;;4.40;93.20;;;;;;5075243;28;20046;-83
2021/03/19 03:00:24;;;;;;;12.83;7.57;;;4.20;93.60;;;;;;5092892;28;20028;-83
2021/03/19 03:02:51;;;;;;;14.20;7.90;;;4.30;93.90;;;;;;5075339;28;20036;-83
2021/03/19 03:05:18;;;;;;;12.00;8.07;;;4.30;93.60;;;;;;5094459;28;20028;-83
2021/03/19 03:07:44;;;;;;;12.27;7.63;;;4.20;93.70;;;;;;5079478;28;20039;-82
2021/03/19 03:10:16;;;;;;;14.23;7.70;;;4.20;93.60;;;;;;5079105;28;20027;-82
2021/03/19 03:12:42;;;;;;;13.93;7.07;;;4.30;93.60;;;;;;5097074;28;20028;-82
2021/03/19 03:15:11;;;;;;;13.77;7.17;;;4.10;93.20;;;;;;5096565;28;20043;-82
2021/03/19 03:17:36;;;;;;;15.13;7.47;;;4.20;93.70;;;;;;5077331;28;20036;-82
2021/03/19 03:20:09;;;;;;;15.27;8.10;;;4.20;93.10;;;;;;5074048;28;20419;-84
2021/03/19 03:22:34;;;;;;;13.33;7.77;;;4.10;93.60;;;;;;5074644;28;20031;-83
2021/03/19 03:25:04;;;;;;;13.47;7.77;;;4.00;93.70;;;;;;5074521;28;20020;-84
2021/03/19 03:27:30;;;;;;;13.23;8.33;;;4.10;93.50;;;;;;5074694;28;20111;-84
2021/03/19 03:29:56;;;;;;;16.23;9.17;;;4.10;93.40;;;;;;5073978;28;20568;-84
2021/03/19 03:32:21;;;;;;;13.50;7.80;;;4.20;93.40;;;;;;5074321;28;20016;-83
2021/03/19 03:34:47;;;;;;;15.67;9.23;;;4.30;93.40;;;;;;5074599;28;20073;-83
2021/03/19 03:37:13;;;;;;;14.90;8.07;;;4.30;93.20;;;;;;5092699;28;20021;-83
2021/03/19 03:39:38;;;;;;;13.83;8.50;;;4.20;93.00;;;;;;5083541;28;20032;-83
2021/03/19 03:42:05;;;;;;;18.80;9.17;;;4.20;93.00;;;;;;5102328;28;20451;-83
2021/03/19 03:44:32;;;;;;;13.83;8.90;;;4.10;93.30;;;;;;5083880;28;20085;-83
2021/03/19 03:46:58;;;;;;;15.93;9.30;;;4.00;93.50;;;;;;5084433;28;20056;-82
2021/03/19 03:49:25;;;;;;;14.87;8.97;;;4.20;93.50;;;;;;5102491;28;20028;-83
2021/03/19 03:51:51;;;;;;;15.07;9.00;;;4.10;93.30;;;;;;5106916;28;20024;-83
2021/03/19 03:54:17;;;;;;;17.47;8.90;;;4.20;93.10;;;;;;5087837;28;20048;-82
2021/03/19 03:56:44;;;;;;;15.50;8.27;;;4.20;93.10;;;;;;5105308;28;20020;-83
2021/03/19 03:59:10;;;;;;;16.40;8.90;;;4.20;93.30;;;;;;5088466;28;20078;-83
2021/03/19 04:01:40;;;;;;;12.97;8.47;;;4.20;93.00;;;;;;5088459;28;20442;-83
2021/03/19 04:04:09;;;;;;;17.30;8.87;;;4.30;93.00;;;;;;5105047;28;20484;-83
2021/03/19 04:06:35;;;;;;;17.02;9.05;;;4.20;93.00;;;;;;5105170;28;20028;-83
2021/03/19 04:09:00;;;;;;;14.07;8.47;;;4.20;93.10;;;;;;5085107;28;20491;-83
2021/03/19 04:11:26;;;;;;;20.63;9.23;;;4.20;93.10;;;;;;5103703;28;20054;-83
2021/03/19 04:13:52;;;;;;;16.00;9.43;;;4.20;92.90;;;;;;5086349;28;20016;-83
2021/03/19 04:16:18;;;;;;;16.17;8.97;;;4.20;92.90;;;;;;5084507;28;20026;-82
2021/03/19 04:18:45;;;;;;;14.03;8.50;;;4.20;92.90;;;;;;5102176;28;20059;-83
2021/03/19 04:21:11;;;;;;;14.67;8.20;;;4.00;92.70;;;;;;5083211;28;20027;-82
2021/03/19 04:23:44;;;;;;;16.73;9.10;;;3.80;92.80;;;;;;5102706;28;20482;-82
2021/03/19 04:26:21;;;;;;;14.43;8.80;;;3.70;93.40;;;;;;5100737;28;20027;-82
2021/03/19 04:28:46;;;;;;;18.60;9.03;;;3.80;93.60;;;;;;5084135;28;20039;-83
2021/03/19 04:31:12;;;;;;;18.87;9.10;;;3.80;93.30;;;;;;5083798;28;20020;-83
2021/03/19 04:33:38;;;;;;;14.23;8.70;;;3.80;93.40;;;;;;5084053;28;20016;-82
2021/03/19 04:36:30;;;;;;;15.87;9.30;;;3.80;93.30;;;;;;5083899;28;20020;-82
2021/03/19 04:38:59;;;;;;;17.30;9.03;;;3.90;93.30;;;;;;5082950;28;20028;-83
2021/03/19 04:41:25;;;;;;;14.65;8.98;;;3.90;93.60;;;;;;5101772;28;20028;-83
2021/03/19 04:43:51;;;;;;;15.30;8.50;;;3.90;92.90;;;;;;5083953;28;20043;-83
2021/03/19 04:46:17;;;;;;;15.77;9.83;;;3.90;92.90;;;;;;5082978;28;20099;-83
2021/03/19 04:48:42;;;;;;;17.30;9.40;;;3.90;93.10;;;;;;5102970;28;20056;-82
2021/03/19 04:51:08;;;;;;;15.93;8.47;;;3.90;93.00;;;;;;5103003;28;20366;-83
2021/03/19 04:53:34;;;;;;;15.73;8.83;;;3.90;92.40;;;;;;5104170;28;20028;-82
2021/03/19 04:55:59;;;;;;;16.87;9.00;;;3.90;92.40;;;;;;5084407;28;20021;-83
2021/03/19 04:58:25;;;;;;;14.30;8.20;;;3.90;92.00;;;;;;5102540;28;20032;-82
2021/03/19 05:00:51;;;;;;;16.37;8.10;;;3.90;91.60;;;;;;5082518;28;20016;-82
2021/03/19 05:03:16;;;;;;;13.37;7.73;;;3.90;91.60;;;;;;5082983;28;20365;-82
2021/03/19 05:05:42;;;;;;;13.63;8.10;;;3.90;91.60;;;;;;5083016;28;20369;-83
2021/03/19 05:08:08;;;;;;;13.63;7.80;;;3.80;91.40;;;;;;5082836;28;20043;-82
2021/03/19 05:10:36;;;;;;;13.93;7.57;;;3.90;91.50;;;;;;5081809;28;20028;-83
2021/03/19 05:13:05;;;;;;;13.87;7.57;;;3.80;91.30;;;;;;5082356;28;20020;-82
2021/03/19 05:15:32;;;;;;;12.10;7.47;;;3.80;91.50;;;;;;5099687;28;20021;-82
2021/03/19 05:17:58;;;;;;;24.07;8.40;;;3.80;91.50;;;;;;5099537;28;20028;-83
2021/03/19 05:20:25;;;;;;;14.53;8.10;;;3.70;91.60;;;;;;5099398;28;20043;-83
2021/03/19 05:22:51;;;;;;;15.97;8.13;;;3.70;91.80;;;;;;5097758;28;20024;-84
2021/03/19 05:25:22;;;;;;;17.33;7.97;;;3.70;91.80;;;;;;5099358;28;20109;-83
2021/03/19 05:27:50;;;;;;;13.40;7.80;;;3.60;91.80;;;;;;5081103;28;20028;-82
2021/03/19 05:30:17;;;;;;;16.57;7.73;;;3.60;92.20;;;;;;5080800;28;20028;-82
2021/03/19 05:32:43;;;;;;;16.87;8.07;;;3.60;91.70;;;;;;5081320;28;20020;-83
2021/03/19 05:35:10;;;;;;;15.63;8.17;;;3.60;91.70;;;;;;5098028;28;20020;-82
2021/03/19 05:37:36;;;;;;;12.50;7.03;;;3.60;91.90;;;;;;5100475;28;20381;-82
2021/03/19 05:40:04;;;;;;;15.37;7.63;;;3.60;91.90;;;;;;5080867;28;20050;-82
2021/03/19 05:42:34;;;;;;;15.07;7.43;;;3.50;91.80;;;;;;5081454;28;20031;-82
2021/03/19 05:45:25;;;;;;;12.83;7.63;;;3.50;91.80;;;;;;5100843;28;20048;-82
2021/03/19 05:47:53;;;;;;;11.50;7.33;;;3.40;91.80;;;;;;5101812;28;20027;-83
2021/03/19 05:50:32;;;;;;;15.87;7.10;;;3.40;91.70;;;;;;5084791;28;20035;-82
2021/03/19 05:53:13;;;;;;;13.60;7.80;;;3.30;92.00;;;;;;5080882;28;20028;-82
2021/03/19 05:55:39;;;;;;;12.07;6.90;;;3.40;92.00;;;;;;5080451;28;20032;-83
2021/03/19 05:58:17;;;;;;;13.03;6.97;;;3.40;91.60;;;;;;5080472;28;20447;-83
2021/03/19 06:00:42;;;;;;;11.53;6.80;;;3.40;91.50;;;;;;5097869;28;20028;-82
2021/03/19 06:03:08;;;;;;;13.70;6.63;;;3.40;91.40;;;;;;5098592;28;20709;-82
2021/03/19 06:05:56;;;;;;;13.70;7.17;;;3.40;91.60;;;;;;5079583;28;20024;-83
2021/03/19 06:08:36;;;;;;;11.90;6.40;;;3.40;91.30;;;;;;5079941;28;20024;-82
2021/03/19 06:11:19;;;;;;;13.37;7.23;;;3.40;91.40;;;;;;5079449;28;20429;-82
2021/03/19 06:14:01;;;;;;;10.83;6.10;;;3.30;91.50;;;;;;5095181;28;20012;-82
2021/03/19 06:16:44;;;;;;;15.77;6.50;;;3.30;91.70;;;;;;5098356;28;20016;-82
2021/03/19 06:19:28;;;;;;;11.60;5.80;;;3.30;91.70;;;;;;5079373;28;20511;-82
2021/03/19 06:22:05;;;;;;;10.27;6.40;;;3.30;91.20;;;;;;5079610;28;20395;-82
2021/03/19 06:24:32;;;;;;;12.37;6.40;;;3.30;91.40;;;;;;5099021;28;20048;-82
2021/03/19 06:27:19;;;;;;;12.17;7.10;;;3.30;91.20;;;;;;5081298;28;20045;-81
2021/03/19 06:29:48;;;;;;;12.77;6.77;;;3.30;91.40;;;;;;5079209;28;20024;-81
2021/03/19 06:32:21;;;;;;;;;;;3.30;91.40;;;;;;5098569;28;20105;-82
2021/03/19 06:35:08;;;;;;;10.70;5.73;;;3.30;91.30;;;;;;5079481;28;20006;-82
2021/03/19 06:37:40;;;;;;;14.37;6.37;;;3.40;91.10;;;;;;5079378;28;20052;-82
2021/03/19 06:40:36;;;;;;;10.83;6.30;;;3.40;91.10;;;;;;5079200;28;20024;-82
2021/03/19 06:43:29;;;;;;;13.73;6.47;;;3.50;90.90;;;;;;5098116;28;20034;-82
2021/03/19 06:46:14;;;;;;;13.77;6.03;;;3.40;90.90;;;;;;5097983;28;20542;-82
2021/03/19 06:48:45;;;;;;;9.77;5.63;;;3.30;91.00;;;;;;5079627;28;20115;-82
2021/03/19 06:51:13;;;;;;;12.57;6.20;;;3.30;90.80;;;;;;5078701;28;20062;-81
2021/03/19 06:53:39;;;;;;;10.90;6.00;;;3.00;90.90;;;;;;5079105;28;20024;-82
2021/03/19 06:56:19;;;;;;;13.73;6.50;;;3.20;91.30;;;;;;5079936;28;20020;-82
2021/03/19 06:58:49;;;;;;;;;;;3.20;91.20;;;;;;5079195;28;20024;-82
2021/03/19 07:01:37;;;;;;;16.17;6.90;;;3.20;91.10;;;;;;5078961;28;19908;-82
2021/03/19 07:04:31;;;;;;;10.65;6.47;;;3.40;91.20;;;;;;5098025;28;20630;-82
2021/03/19 07:07:15;;;;;;;14.63;6.07;;;3.40;91.00;;;;;;5097691;28;20024;-83
2021/03/19 07:10:38;;;;;;;12.87;6.20;;;3.50;90.90;;;;;;5078767;28;20051;-82
2021/03/19 07:13:17;;;;;;;9.93;5.90;;;3.50;90.60;;;;;;5055279;28;20031;-83
2021/03/19 07:15:55;;;;;;;11.88;6.00;;;3.30;90.70;;;;;;5093604;28;20059;-82
2021/03/19 07:18:58;;;;;;;9.90;5.70;;;3.40;90.60;;;;;;5079577;28;20042;-82
2021/03/19 07:21:26;;;;;;;9.07;5.60;;;3.50;90.50;;;;;;5080208;28;20046;-82
2021/03/19 07:24:11;;;;;;;12.63;6.30;;;3.50;90.30;;;;;;5078998;28;20110;-82
2021/03/19 07:26:43;;;;;;;11.83;6.20;;;3.50;90.60;;;;;;5081115;28;20254;-83
2021/03/19 07:29:27;;;;;;;15.73;6.30;;;3.50;90.60;;;;;;5079644;28;20078;-82
2021/03/19 07:32:05;;;;;;;12.90;6.20;;;3.60;90.40;;;;;;5079759;28;20027;-82
2021/03/19 07:34:49;;;;;;;10.73;5.93;;;3.70;90.30;;;;;;5078612;28;20031;-83
2021/03/19 07:37:41;;;;;;;11.10;6.50;;;3.70;90.20;;;;;;5081757;28;20087;-82
2021/03/19 07:40:31;;;;;;;10.80;6.03;;;3.80;90.30;;;;;;5096694;28;20040;-82
2021/03/19 07:43:34;;;;;;;10.90;6.07;;;3.80;90.00;;;;;;5082022;28;20455;-83
2021/03/19 07:46:19;;;;;;;9.37;5.83;;;3.90;89.70;;;;;;5100834;28;20065;-82
2021/03/19 07:49:29;;;;;;;10.33;5.97;;;3.90;90.00;;;;;;5082292;28;20081;-83
2021/03/19 07:52:30;;;;;;;11.80;6.30;;;3.90;89.60;;;;;;5074978;28;20036;-83
2021/03/19 07:55:19;;;;;;;10.13;6.33;;;4.00;90.00;;;;;;5063503;28;20040;-83
2021/03/19 07:57:59;;;;;;;11.43;5.90;;;3.90;88.80;;;;;;5083238;28;20024;-82
2021/03/19 08:00:32;;;;;;;11.57;5.77;;;3.90;89.50;;;;;;5083535;28;20107;-83
2021/03/19 08:03:08;;;;;;;11.87;5.80;;;4.00;89.20;;;;;;5102396;28;20396;-83
2021/03/19 08:05:46;;;;;;;13.13;6.10;;;4.00;90.20;;;;;;5085162;28;20060;-84
2021/03/19 08:08:24;;;;;;;11.63;6.20;;;4.00;89.20;;;;;;5103269;28;20024;-83
2021/03/19 08:11:05;;;;;;;11.73;5.60;;;4.00;88.80;;;;;;5084329;28;20043;-83
2021/03/19 08:13:47;;;;;;;9.73;5.43;;;4.10;88.70;;;;;;5102074;28;20051;-83
2021/03/19 08:16:21;;;;;;;12.17;6.00;;;4.10;89.20;;;;;;5102405;28;20028;-82
2021/03/19 08:19:22;;;;;;;7.70;5.10;;;4.10;88.50;;;;;;5102051;28;20059;-83
2021/03/19 08:22:26;;;;;;;10.33;5.30;;;4.20;88.50;;;;;;5102265;28;20048;-83
2021/03/19 08:25:14;;;;;;;11.87;5.70;;;4.20;88.20;;;;;;5084313;28;20024;-82
2021/03/19 08:28:25;;;;;;;11.23;5.63;;;4.20;88.30;;;;;;5084218;28;20526;-84
2021/03/19 08:31:22;;;;;;;12.30;5.43;;;4.20;87.90;;;;;;5076907;28;20036;-84
2021/03/19 08:34:20;;;;;;;11.63;5.00;;;4.10;87.80;;;;;;5101717;28;20491;-82
2021/03/19 08:36:53;;;;;;;10.17;4.97;;;4.30;87.60;;;;;;5070198;28;20036;-83
2021/03/19 08:39:42;;;;;;;10.03;4.73;;;4.30;87.20;;;;;;5087138;28;20035;-83
2021/03/19 08:42:13;;;;;;;8.70;4.33;;;4.40;85.90;;;;;;5088456;28;20032;-83
2021/03/19 08:44:40;;;;;;;9.30;4.20;;;4.50;85.30;;;;;;5108170;28;20028;-84
2021/03/19 08:47:28;;;;;;;8.33;4.20;;;4.50;85.30;;;;;;5089332;28;20043;-82
2021/03/19 08:49:57;;;;;;;8.77;4.27;;;4.40;83.70;;;;;;5105793;28;20480;-83
2021/03/19 08:52:38;;;;;;;11.77;4.20;;;4.50;84.50;;;;;;5089743;28;20031;-84
2021/03/19 08:55:21;;;;;;;7.63;4.00;;;4.50;83.10;;;;;;5089943;28;20039;-83
2021/03/19 08:57:50;;;;;;;8.40;4.03;;;4.50;83.90;;;;;;5089812;28;20020;-84
2021/03/19 09:00:25;;;;;;;8.07;3.50;;;4.60;84.40;;;;;;5106493;28;20036;-84
2021/03/19 09:03:00;;;;;;;7.73;2.97;;;4.60;82.90;;;;;;5107236;28;20028;-83
2021/03/19 09:05:34;;;;;;;5.40;2.70;;;4.60;80.50;;;;;;5090257;28;20036;-83
2021/03/19 09:08:15;;;;;;;6.93;2.60;;;4.70;81.20;;;;;;5089576;28;20028;-83
2021/03/19 09:10:41;;;;;;;6.53;3.00;;;4.80;79.90;;;;;;5083419;28;20035;-83
2021/03/19 09:13:10;;;;;;;7.23;3.13;;;4.80;80.10;;;;;;5083508;28;20024;-83
2021/03/19 09:15:37;;;;;;;;;;;4.90;80.00;;;;;;5102380;28;20107;-83
2021/03/19 09:18:07;;;;;;;5.33;2.47;;;5.00;80.70;;;;;;5082491;28;19912;-83
2021/03/19 09:20:39;;;;;;;6.68;3.05;;;5.00;80.40;;;;;;5083068;28;20530;-84
2021/03/19 09:23:07;;;;;;;5.60;2.70;;;5.00;79.00;;;;;;5102240;28;20479;-83
2021/03/19 09:25:48;;;;;;;6.07;3.07;;;5.10;78.80;;;;;;5083751;28;20437;-83
2021/03/19 09:28:29;;;;;;;6.70;3.00;;;5.10;78.70;;;;;;5101756;28;20040;-83
2021/03/19 09:31:06;;;;;;;4.80;2.63;;;5.10;78.20;;;;;;5082606;28;20024;-83
2021/03/19 09:33:44;;;;;;;6.13;3.17;;;5.10;78.50;;;;;;5102404;28;20047;-83
2021/03/19 09:36:47;;;;;;;6.33;2.80;;;5.10;77.20;;;;;;5084115;28;20055;-82
2021/03/19 09:39:53;;;;;;;7.10;2.60;;;5.10;77.60;;;;;;5083316;28;20818;-83
2021/03/19 09:42:22;;;;;;;6.30;3.00;;;5.20;77.80;;;;;;5081987;28;20103;-83
2021/03/19 09:44:49;;;;;;;5.13;2.80;;;5.30;78.30;;;;;;5100988;28;20050;-83
2021/03/19 09:47:16;;;;;;;6.20;2.33;;;5.40;78.80;;;;;;5081166;28;20032;-83
2021/03/19 09:49:42;;;;;;;3.90;1.80;;;5.40;75.50;;;;;;5082119;28;20028;-83
2021/03/19 09:52:20;;;;;;;7.10;2.70;;;5.40;74.80;;;;;;5082618;28;20031;-83
2021/03/19 09:54:46;;;;;;;4.47;2.10;;;5.40;74.30;;;;;;5082386;28;20024;-82
2021/03/19 09:57:22;;;;;;;5.47;2.47;;;5.40;74.40;;;;;;5082403;28;20020;-83
2021/03/19 10:00:16;;;;;;;5.10;2.33;;;5.40;74.60;;;;;;5100714;28;20024;-83
2021/03/19 10:02:42;;;;;;;4.93;2.37;;;5.50;75.10;;;;;;5084058;28;20047;-83
2021/03/19 10:05:11;;;;;;;5.73;2.03;;;5.60;75.60;;;;;;5083002;28;20038;-83
2021/03/19 10:07:42;;;;;;;4.45;2.55;;;5.70;74.80;;;;;;5100141;28;20031;-83
2021/03/19 10:10:33;;;;;;;3.60;1.90;;;5.70;74.20;;;;;;5081189;28;20035;-83
2021/03/19 10:13:17;;;;;;;3.93;1.80;;;5.80;73.40;;;;;;5080543;28;20032;-84
2021/03/19 10:15:45;;;;;;;3.93;2.00;;;5.90;73.60;;;;;;5081846;28;20028;-83
2021/03/19 10:18:30;;;;;;;5.23;2.10;;;6.00;73.80;;;;;;5081888;28;20503;-83
2021/03/19 10:21:07;;;;;;;4.30;2.17;;;5.90;70.70;;;;;;5080149;28;20472;-83
2021/03/19 10:23:37;;;;;;;3.33;2.10;;;5.80;71.30;;;;;;5099819;28;20028;-83
2021/03/19 10:26:17;;;;;;;4.60;2.17;;;5.80;70.10;;;;;;5081458;28;20039;-83
2021/03/19 10:28:50;;;;;;;3.60;1.97;;;5.90;71.00;;;;;;5100193;28;20504;-84
2021/03/19 10:31:20;;;;;;;4.57;1.87;;;5.90;71.00;;;;;;5081257;28;20150;-84
2021/03/19 10:34:06;;;;;;;4.73;2.10;;;5.90;70.10;;;;;;5098164;28;20031;-83
2021/03/19 10:36:51;;;;;;;4.43;2.00;;;5.90;70.70;;;;;;5081705;28;20152;-82
2021/03/19 10:39:32;;;;;;;4.17;2.20;;;5.90;69.40;;;;;;5080091;28;20032;-83
2021/03/19 10:42:21;;;;;;;4.87;2.00;;;5.90;69.20;;;;;;5081606;28;20030;-83
2021/03/19 10:45:08;;;;;;;4.20;1.85;;;5.90;69.50;;;;;;5080802;28;20063;-83
2021/03/19 10:48:05;;;;;;;3.37;1.80;;;5.90;68.90;;;;;;5099176;28;20028;-83
2021/03/19 10:50:35;;;;;;;3.47;1.90;;;5.90;68.50;;;;;;5080626;28;20024;-84
2021/03/19 10:53:16;;;;;;;4.67;1.80;;;6.00;69.20;;;;;;5081019;28;20388;-83
2021/03/19 10:55:46;;;;;;;3.63;2.00;;;6.00;68.50;;;;;;5080850;28;20023;-83
2021/03/19 10:58:37;;;;;;;4.63;1.60;;;6.00;68.10;;;;;;5081285;28;20028;-83
2021/03/19 11:01:33;;;;;;;4.27;1.80;;;6.10;66.50;;;;;;5093567;28;20039;-83
2021/03/19 11:04:00;;;;;;;3.37;1.63;;;6.10;67.50;;;;;;5098636;28;20028;-83
2021/03/19 11:06:38;;;;;;;3.50;1.70;;;6.10;67.80;;;;;;5080698;28;20024;-83
2021/03/19 11:09:16;;;;;;;4.27;1.70;;;6.20;66.40;;;;;;5098461;28;20123;-83
2021/03/19 11:11:46;;;;;;;3.67;1.77;;;6.20;66.30;;;;;;5080989;28;20025;-83
2021/03/19 11:14:12;;;;;;;;;;;6.10;65.60;;;;;;5099835;28;20047;-83
2021/03/19 11:16:44;;;;;;;4.93;2.10;;;6.10;67.00;;;;;;5081220;28;19947;-83
2021/03/19 11:19:19;;;;;;;4.77;1.93;;;6.10;65.60;;;;;;5080791;28;20118;-83
2021/03/19 11:21:59;;;;;;;2.70;1.53;;;6.10;64.80;;;;;;5100424;28;20020;-82
2021/03/19 11:24:32;;;;;;;3.40;1.60;;;6.10;64.50;;;;;;5101317;28;20523;-83
2021/03/19 11:27:10;;;;;;;3.77;1.40;;;6.10;64.30;;;;;;5082284;28;20020;-82
2021/03/19 11:29:38;;;;;;;3.43;1.30;;;6.20;64.00;;;;;;5080953;28;20503;-83
2021/03/19 11:32:15;;;;;;;3.63;1.40;;;6.20;62.30;;;;;;5082436;28;20042;-83
2021/03/19 11:34:42;;;;;;;3.20;1.60;;;6.30;63.00;;;;;;5083430;28;20021;-83
2021/03/19 11:37:29;;;;;;;2.27;1.30;;;6.30;63.40;;;;;;5076913;28;20439;-83
2021/03/19 11:40:22;;;;;;;2.77;1.50;;;6.40;64.00;;;;;;5075844;28;20497;-84
2021/03/19 11:43:00;;;;;;;3.20;1.43;;;6.40;63.40;;;;;;5076171;28;20055;-84
2021/03/19 11:45:29;;;;;;;3.03;1.70;;;6.40;63.90;;;;;;5077938;28;20032;-84
2021/03/19 11:48:08;;;;;;;3.78;1.35;;;6.40;63.60;;;;;;5093581;28;20035;-84
2021/03/19 11:50:41;;;;;;;;;;;6.50;64.10;;;;;;5078154;28;20024;-85
2021/03/19 11:53:11;;;;;;;3.50;1.77;;;6.50;64.40;;;;;;5097183;28;19904;-84
2021/03/19 11:55:43;;;;;;;5.70;1.30;;;6.50;60.80;;;;;;5093278;28;20038;-84
2021/03/19 11:58:11;;;;;;;2.43;1.13;;;6.60;59.00;;;;;;5077084;28;20373;-84
2021/03/19 12:00:39;;;;;;;2.53;1.20;;;6.60;58.00;;;;;;5076056;28;20488;-84
2021/03/19 12:03:10;;;;;;;3.93;1.20;;;6.60;59.10;;;;;;5092470;28;20370;-83
2021/03/19 12:05:36;;;;;;;2.20;1.20;;;6.70;59.80;;;;;;5074611;28;20036;-83
2021/03/19 12:08:02;;;;;;;2.63;1.10;;;6.70;57.40;;;;;;5092569;28;20024;-82
2021/03/19 12:10:29;;;;;;;4.33;1.70;;;6.70;58.30;;;;;;5091949;28;20142;-83
2021/03/19 12:12:57;;;;;;;3.23;1.20;;;6.70;58.90;;;;;;5078065;28;20025;-83
2021/03/19 12:15:23;;;;;;;4.33;1.17;;;6.80;60.30;;;;;;5078265;28;20465;-83
2021/03/19 12:17:49;;;;;;;2.40;1.13;;;6.90;59.40;;;;;;5078073;28;20024;-83
2021/03/19 12:20:15;;;;;;;2.03;1.00;;;6.90;58.40;;;;;;5077646;28;20442;-84
2021/03/19 12:22:41;;;;;;;1.10;0.70;;;7.00;58.70;;;;;;5077923;28;20032;-84
2021/03/19 12:25:31;;;;;;;2.30;1.00;;;7.00;58.40;;;;;;5078313;28;20057;-84
2021/03/19 12:27:57;;;;;;;2.63;1.00;;;7.00;56.70;;;;;;5097928;28;20030;-84
2021/03/19 12:30:23;;;;;;;2.93;1.00;;;7.10;54.70;;;;;;5079224;28;20484;-84
2021/03/19 12:32:50;;;;;;;2.53;1.00;;;7.10;55.40;;;;;;5079692;28;20021;-83
2021/03/19 12:35:17;;;;;;;2.97;0.90;;;7.10;55.40;;;;;;5097755;28;20016;-84
2021/03/19 12:37:43;;;;;;;1.90;0.90;;;7.10;54.80;;;;;;5097530;28;20485;-84
2021/03/19 12:40:09;;;;;;;2.87;1.00;;;7.10;54.90;;;;;;5082195;28;20031;-83
2021/03/19 12:42:35;;;;;;;1.60;0.80;;;7.10;54.60;;;;;;5087153;28;20516;-82
2021/03/19 12:45:01;;;;;;;2.13;0.73;;;7.10;53.80;;;;;;5105296;28;20039;-83
2021/03/19 12:47:26;;;;;;;0.87;0.60;;;7.20;54.40;;;;;;5105172;28;20024;-83
2021/03/19 12:49:52;;;;;;;1.53;0.90;;;7.20;55.30;;;;;;5105254;28;20042;-83
2021/03/19 12:52:18;;;;;;;2.20;0.70;;;7.20;55.90;;;;;;5105456;28;20046;-83
2021/03/19 12:54:43;;;;;;;1.87;0.93;;;7.30;54.60;;;;;;5105500;28;20028;-83
2021/03/19 12:57:09;;;;;;;2.00;0.97;;;7.30;55.00;;;;;;5087086;28;20020;-83
2021/03/19 12:59:35;;;;;;;2.37;0.83;;;7.30;53.30;;;;;;5104863;28;20064;-83
2021/03/19 13:02:00;;;;;;;2.10;1.17;;;7.30;54.00;;;;;;5086846;28;20063;-83
2021/03/19 13:04:27;;;;;;;2.00;0.97;;;7.30;53.30;;;;;;5105665;28;20042;-83
2021/03/19 13:06:53;;;;;;;2.87;0.90;;;7.30;52.60;;;;;;5086803;28;20051;-84
2021/03/19 13:09:19;;;;;;;2.23;0.90;;;7.30;52.50;;;;;;5087213;28;20492;-83
2021/03/19 13:11:44;;;;;;;1.73;0.93;;;7.40;53.40;;;;;;5087532;28;20035;-83
2021/03/19 13:14:10;;;;;;;1.77;1.00;;;7.40;53.00;;;;;;5087259;28;20078;-83
2021/03/19 13:16:36;;;;;;;4.67;0.93;;;7.50;51.60;;;;;;5087736;28;20028;-84
2021/03/19 13:19:02;;;;;;;3.10;1.10;;;7.40;51.20;;;;;;5100842;22;20068;-82
2021/03/19 13:21:29;;;;;;;1.33;0.70;;;7.50;51.50;;;;;;5046829;28;20045;-82
2021/03/19 13:23:54;;;;;;;1.20;0.73;;;7.50;51.20;;;;;;5047521;28;20017;-82
2021/03/19 13:26:22;;;;;;;1.77;0.90;;;7.50;50.80;;;;;;5047288;28;20028;-82
2021/03/19 13:28:48;;;;;;;2.10;1.00;;;7.50;51.60;;;;;;5056247;28;20036;-82